Time;durP1;ratioP1;P1;durP2;ratioP2;P2;SDS_P1;SDS_P2;PMS_P1;PMS_P2;Temp;Humidity;BMP_temperature;BMP_pressure;BME280_temperature;BME280_humidity;BME280_pressure;Samples;Min_cycle;Max_cycle;Signal;HPM_P1;HPM_P2
2022/05/22 00:01:45;;;;;;;3.55;1.60;;;22.60;52.20;;;;;;4855823;29;20060;-69
2022/05/22 00:04:11;;;;;;;6.03;2.25;;;22.60;52.30;;;;;;4856715;29;20041;-70
2022/05/22 00:06:37;;;;;;;6.10;1.95;;;22.60;52.30;;;;;;4856597;29;20033;-70
2022/05/22 00:09:04;;;;;;;7.95;2.10;;;22.60;52.20;;;;;;4855047;29;20049;-70
2022/05/22 00:11:29;;;;;;;5.53;1.90;;;22.60;52.30;;;;;;4855078;29;20402;-70
2022/05/22 00:13:55;;;;;;;6.70;1.95;;;22.60;52.50;;;;;;4856343;29;20048;-70
2022/05/22 00:16:38;;;;;;;6.35;1.75;;;22.60;52.40;;;;;;4856595;29;20518;-71
2022/05/22 00:19:06;;;;;;;4.90;1.83;;;22.60;52.40;;;;;;4856102;29;20025;-70
2022/05/22 00:21:33;;;;;;;4.85;1.90;;;22.60;52.40;;;;;;4839309;29;20503;-70
2022/05/22 00:23:58;;;;;;;4.70;1.60;;;22.60;52.60;;;;;;4854552;29;20025;-70
2022/05/22 00:26:24;;;;;;;3.28;1.52;;;22.60;52.50;;;;;;4855842;29;20033;-70
2022/05/22 00:28:50;;;;;;;5.57;1.80;;;22.60;52.50;;;;;;4858072;29;20053;-70
2022/05/22 00:31:17;;;;;;;5.10;1.80;;;22.60;52.60;;;;;;4859607;29;20052;-70
2022/05/22 00:33:43;;;;;;;3.95;1.42;;;22.60;52.60;;;;;;4858493;29;20033;-70
2022/05/22 00:36:09;;;;;;;4.45;1.80;;;22.60;52.70;;;;;;4877685;29;20049;-70
2022/05/22 00:38:35;;;;;;;2.30;1.27;;;22.60;52.70;;;;;;4858926;29;20038;-71
2022/05/22 00:41:01;;;;;;;3.38;1.60;;;22.60;52.70;;;;;;4859600;29;20129;-70
2022/05/22 00:43:40;;;;;;;3.70;1.65;;;22.60;52.80;;;;;;4863683;29;20034;-71
2022/05/22 00:46:07;;;;;;;4.28;1.70;;;22.60;52.80;;;;;;4857979;29;20029;-70
2022/05/22 00:48:34;;;;;;;5.22;1.85;;;22.60;52.80;;;;;;4859333;29;20037;-71
2022/05/22 00:51:07;;;;;;;7.15;1.88;;;22.60;52.80;;;;;;4859585;29;20041;-71
2022/05/22 00:53:36;;;;;;;5.00;1.70;;;22.60;52.80;;;;;;4859000;29;20449;-70
2022/05/22 00:56:06;;;;;;;4.27;1.53;;;22.60;52.90;;;;;;4856695;29;20565;-70
2022/05/22 00:58:32;;;;;;;3.08;1.60;;;22.60;52.80;;;;;;4857078;29;20779;-70
2022/05/22 01:00:59;;;;;;;4.32;1.83;;;22.60;52.80;;;;;;4844323;29;20029;-70
2022/05/22 01:03:28;;;;;;;3.90;1.55;;;22.60;52.80;;;;;;4859247;29;20037;-70
2022/05/22 01:06:17;;;;;;;6.00;1.55;;;22.60;52.80;;;;;;4858232;29;20041;-70
2022/05/22 01:08:43;;;;;;;5.10;1.48;;;22.60;53.00;;;;;;4856797;29;20471;-70
2022/05/22 01:11:14;;;;;;;4.75;1.73;;;22.60;52.90;;;;;;4876608;29;20038;-69
2022/05/22 01:13:44;;;;;;;6.28;1.83;;;22.60;53.00;;;;;;4844924;29;20060;-70
2022/05/22 01:16:10;;;;;;;4.55;1.50;;;22.60;53.00;;;;;;4859597;29;20041;-69
2022/05/22 01:18:42;;;;;;;3.42;1.50;;;22.60;53.00;;;;;;4862004;29;20033;-70
2022/05/22 01:21:12;;;;;;;4.05;1.50;;;22.60;53.10;;;;;;4857826;29;20034;-69
2022/05/22 01:23:38;;;;;;;4.55;1.50;;;22.50;53.00;;;;;;4857729;29;20037;-69
2022/05/22 01:26:12;;;;;;;3.95;1.52;;;22.60;53.20;;;;;;4874619;29;20502;-70
2022/05/22 01:28:38;;;;;;;4.90;1.50;;;22.60;54.00;;;;;;4856314;29;20386;-69
2022/05/22 01:31:06;;;;;;;5.18;1.65;;;22.60;53.20;;;;;;4826614;29;20044;-70
2022/05/22 01:33:34;;;;;;;3.30;1.33;;;22.60;53.20;;;;;;4856153;29;20034;-69
2022/05/22 01:36:01;;;;;;;5.97;1.70;;;22.60;53.30;;;;;;4840529;29;20026;-70
2022/05/22 01:38:27;;;;;;;4.63;1.58;;;22.60;53.30;;;;;;4840589;29;20105;-70
2022/05/22 01:40:53;;;;;;;7.50;1.60;;;22.60;53.30;;;;;;4858944;29;20033;-69
2022/05/22 01:43:33;;;;;;;9.13;1.77;;;22.60;53.20;;;;;;4861779;29;20029;-69
2022/05/22 01:45:59;;;;;;;3.97;1.52;;;22.60;53.20;;;;;;4857016;29;20593;-69
2022/05/22 01:48:25;;;;;;;3.50;1.60;;;22.60;53.30;;;;;;4868337;29;20030;-71
2022/05/22 01:50:52;;;;;;;5.80;1.67;;;22.60;53.30;;;;;;4861444;29;20033;-70
2022/05/22 01:53:19;;;;;;;5.05;2.00;;;22.60;53.20;;;;;;4862177;29;20025;-69
2022/05/22 01:55:48;;;;;;;4.00;1.70;;;22.60;53.40;;;;;;4858064;29;20530;-70
2022/05/22 01:58:14;;;;;;;5.32;1.50;;;22.60;53.30;;;;;;4862336;29;20056;-70
2022/05/22 02:00:43;;;;;;;2.58;1.50;;;22.60;53.30;;;;;;4841841;29;20372;-70
2022/05/22 02:03:09;;;;;;;7.07;1.40;;;22.60;53.20;;;;;;4857074;29;20040;-71
2022/05/22 02:05:35;;;;;;;3.33;1.52;;;22.60;53.20;;;;;;4873631;29;20046;-71
2022/05/22 02:11:03;;;;;;;2.75;1.30;;;22.60;53.30;;;;;;4872637;29;20092;-70
2022/05/22 02:13:38;;;;;;;2.75;1.50;;;22.60;53.20;;;;;;4862394;29;20490;-71
2022/05/22 02:16:07;;;;;;;3.78;1.50;;;22.60;53.50;;;;;;4856715;29;20041;-70
2022/05/22 02:18:33;;;;;;;3.80;1.50;;;22.60;53.50;;;;;;4856797;29;20101;-70
2022/05/22 02:20:59;;;;;;;5.85;1.73;;;22.60;53.60;;;;;;4862449;29;20494;-73
2022/05/22 02:23:28;;;;;;;18.23;5.82;;;22.60;54.30;;;;;;4842094;29;20124;-72
2022/05/22 02:25:55;;;;;;;23.63;11.25;;;22.50;53.20;;;;;;4853261;29;20229;-70
2022/05/22 02:28:24;;;;;;;16.55;7.30;;;22.40;51.40;;;;;;4872253;29;20388;-69
2022/05/22 02:30:56;;;;;;;19.35;4.80;;;22.30;49.60;;;;;;4872174;29;20505;-70
2022/05/22 02:33:23;;;;;;;;;;;22.10;49.30;;;;;;4854902;29;20037;-70
2022/05/22 02:35:57;;;;;;;12.20;3.85;;;22.10;48.80;;;;;;4870404;29;20015;-70
2022/05/22 02:38:28;;;;;;;13.60;4.57;;;22.20;49.00;;;;;;4856042;29;20037;-69
2022/05/22 02:40:54;;;;;;;12.05;4.07;;;22.20;49.40;;;;;;4868761;29;20081;-69
2022/05/22 02:43:20;;;;;;;17.75;4.47;;;22.30;49.90;;;;;;4869493;29;20038;-70
2022/05/22 02:45:51;;;;;;;15.65;4.35;;;22.30;50.20;;;;;;4871218;29;20108;-70
2022/05/22 02:48:18;;;;;;;10.60;4.03;;;22.30;50.60;;;;;;4871435;29;20112;-70
2022/05/22 02:50:58;;;;;;;;;;;22.40;50.90;;;;;;4872731;29;20030;-70
2022/05/22 02:53:24;;;;;;;11.52;3.75;;;22.40;51.10;;;;;;4871519;29;19964;-70
2022/05/22 02:56:12;;;;;;;13.15;3.83;;;22.40;51.20;;;;;;4857991;29;20036;-70
2022/05/22 02:59:04;;;;;;;11.30;3.97;;;22.40;51.30;;;;;;4848095;29;20049;-70
2022/05/22 03:01:53;;;;;;;19.60;4.43;;;22.40;51.40;;;;;;4862342;29;20384;-70
2022/05/22 03:04:19;;;;;;;10.88;3.75;;;22.40;51.50;;;;;;4870774;29;20033;-70
2022/05/22 03:06:45;;;;;;;10.18;3.70;;;22.40;51.50;;;;;;4871488;29;20025;-70
2022/05/22 03:09:15;;;;;;;10.75;3.65;;;22.40;51.60;;;;;;4855674;29;20081;-70
2022/05/22 03:11:45;;;;;;;10.85;3.45;;;22.40;51.60;;;;;;4856383;29;20043;-69
2022/05/22 03:14:13;;;;;;;10.10;3.30;;;22.40;51.70;;;;;;4870741;29;20044;-70
2022/05/22 03:16:39;;;;;;;10.52;3.90;;;22.40;51.80;;;;;;4856438;29;20101;-70
2022/05/22 03:19:19;;;;;;;9.73;3.28;;;22.40;51.80;;;;;;4870737;29;20029;-70
2022/05/22 03:21:45;;;;;;;8.48;3.15;;;22.40;52.00;;;;;;4867107;29;20764;-70
2022/05/22 03:24:12;;;;;;;9.98;3.50;;;22.40;52.00;;;;;;4868421;29;20041;-70
2022/05/22 03:26:45;;;;;;;11.40;4.00;;;22.40;52.00;;;;;;4840897;29;20036;-70
2022/05/22 03:29:11;;;;;;;13.35;3.60;;;22.40;52.00;;;;;;4870681;29;20490;-70
2022/05/22 03:31:37;;;;;;;22.77;4.07;;;22.40;52.10;;;;;;4852675;29;20021;-70
2022/05/22 03:34:04;;;;;;;11.20;3.40;;;22.40;52.10;;;;;;4868840;29;20389;-70
2022/05/22 03:36:30;;;;;;;8.90;3.20;;;22.40;52.10;;;;;;4855991;29;20045;-70
2022/05/22 03:38:56;;;;;;;8.85;3.55;;;22.40;52.20;;;;;;4856597;29;20064;-70
2022/05/22 03:41:22;;;;;;;10.32;3.70;;;22.40;52.20;;;;;;4871203;29;20410;-70
2022/05/22 03:43:51;;;;;;;8.13;3.22;;;22.40;52.20;;;;;;4871095;29;20037;-70
2022/05/22 03:46:49;;;;;;;9.90;3.50;;;22.40;52.30;;;;;;4852282;29;20037;-70
2022/05/22 03:49:18;;;;;;;8.57;3.10;;;22.40;52.20;;;;;;4854866;29;20033;-70
2022/05/22 03:51:47;;;;;;;9.73;3.72;;;22.40;52.50;;;;;;4855587;29;20041;-70
2022/05/22 03:54:16;;;;;;;13.80;3.67;;;22.40;52.40;;;;;;4854075;29;20097;-70
2022/05/22 03:56:44;;;;;;;11.10;3.22;;;22.50;52.30;;;;;;4870327;29;20169;-70
2022/05/22 03:59:19;;;;;;;11.23;3.58;;;22.50;52.50;;;;;;4870846;29;20030;-70
2022/05/22 04:01:46;;;;;;;9.75;3.30;;;22.50;52.50;;;;;;4870532;29;20038;-70
2022/05/22 04:04:12;;;;;;;9.23;3.45;;;22.50;52.70;;;;;;4873986;29;20038;-69
2022/05/22 04:06:39;;;;;;;8.55;3.10;;;22.50;52.60;;;;;;4859083;29;20034;-70
2022/05/22 04:09:05;;;;;;;8.98;3.20;;;22.50;52.70;;;;;;4856150;29;20117;-70
2022/05/22 04:11:53;;;;;;;9.10;3.42;;;22.50;52.60;;;;;;4870840;29;20030;-70
2022/05/22 04:14:19;;;;;;;7.85;3.45;;;22.40;52.80;;;;;;4871505;29;20049;-70
2022/05/22 04:16:53;;;;;;;8.38;3.13;;;22.50;52.90;;;;;;4873921;29;20060;-70
2022/05/22 04:19:19;;;;;;;7.82;3.08;;;22.40;53.00;;;;;;4843729;29;20486;-70
2022/05/22 04:21:45;;;;;;;8.98;3.40;;;22.50;52.90;;;;;;4871355;29;20100;-70
2022/05/22 04:27:08;;;;;;;7.95;2.75;;;22.40;52.90;;;;;;4872856;29;20398;-70
2022/05/22 04:29:36;;;;;;;5.82;2.78;;;22.50;52.90;;;;;;4854643;29;20021;-70
2022/05/22 04:32:03;;;;;;;7.32;3.60;;;22.40;52.90;;;;;;4855042;29;20398;-70
2022/05/22 04:34:39;;;;;;;7.10;3.40;;;22.50;52.80;;;;;;4873723;29;20034;-70
2022/05/22 04:37:10;;;;;;;10.32;3.30;;;22.50;52.80;;;;;;4843453;29;20041;-70
2022/05/22 04:39:43;;;;;;;12.13;3.28;;;22.40;52.90;;;;;;4871657;29;20057;-69
2022/05/22 04:42:09;;;;;;;7.78;3.20;;;22.50;52.70;;;;;;4857517;29;20128;-70
2022/05/22 04:44:35;;;;;;;7.22;3.10;;;22.50;52.80;;;;;;4858076;29;20554;-70
2022/05/22 04:47:24;;;;;;;10.27;3.65;;;22.50;52.80;;;;;;4854559;29;20109;-70
2022/05/22 04:50:12;;;;;;;9.18;3.47;;;22.50;52.90;;;;;;4857665;29;20410;-70
2022/05/22 04:52:57;;;;;;;9.20;3.40;;;22.50;53.00;;;;;;4859886;29;20045;-70
2022/05/22 04:55:24;;;;;;;9.73;3.65;;;22.50;53.00;;;;;;4872358;29;20094;-70
2022/05/22 04:57:50;;;;;;;8.85;2.78;;;22.50;53.10;;;;;;4842375;29;20407;-70
2022/05/22 05:00:17;;;;;;;7.63;3.00;;;22.50;53.00;;;;;;4857576;29;20033;-70
2022/05/22 05:02:53;;;;;;;7.47;3.20;;;22.40;53.10;;;;;;4874139;29;20486;-70
2022/05/22 05:05:19;;;;;;;5.85;2.80;;;22.50;53.10;;;;;;4871727;29;20037;-70
2022/05/22 05:07:45;;;;;;;8.95;3.58;;;22.50;53.20;;;;;;4854388;29;20065;-70
2022/05/22 05:10:40;;;;;;;6.68;2.97;;;22.50;53.20;;;;;;4866556;29;20035;-71
2022/05/22 05:13:31;;;;;;;6.43;2.85;;;22.50;53.30;;;;;;4853202;29;20072;-70
2022/05/22 05:15:58;;;;;;;8.77;3.30;;;22.50;53.10;;;;;;4884936;23;20067;-70
2022/05/22 05:18:27;;;;;;;8.95;3.25;;;22.50;53.50;;;;;;4872092;29;20546;-70
2022/05/22 05:20:54;;;;;;;6.97;3.10;;;22.40;53.70;;;;;;4857773;29;20029;-70
2022/05/22 05:23:22;;;;;;;7.55;3.50;;;22.50;53.50;;;;;;4874678;29;20041;-70
2022/05/22 05:25:59;;;;;;;9.38;3.20;;;22.50;53.40;;;;;;4873890;29;20030;-70
2022/05/22 05:28:26;;;;;;;8.55;3.33;;;22.50;53.50;;;;;;4857286;29;20113;-70
2022/05/22 05:30:52;;;;;;;8.85;3.50;;;22.50;53.60;;;;;;4859002;29;20030;-71
2022/05/22 05:33:19;;;;;;;8.10;3.22;;;22.50;53.60;;;;;;4842777;29;20048;-70
2022/05/22 05:36:09;;;;;;;9.20;2.93;;;22.40;53.60;;;;;;4858158;29;20120;-71
2022/05/22 05:39:03;;;;;;;8.18;3.00;;;22.40;53.40;;;;;;4858846;29;20521;-71
2022/05/22 05:41:40;;;;;;;7.65;3.28;;;22.50;53.50;;;;;;4843369;29;20048;-70
2022/05/22 05:44:07;;;;;;;7.40;2.95;;;22.50;53.60;;;;;;4859057;29;20083;-70
2022/05/22 05:46:38;;;;;;;7.75;2.85;;;22.50;53.60;;;;;;4843306;29;20037;-70
2022/05/22 05:49:12;;;;;;;5.70;2.65;;;22.50;53.40;;;;;;4871854;29;20032;-70
2022/05/22 05:51:38;;;;;;;11.23;3.33;;;22.50;53.60;;;;;;4843333;29;20029;-71
2022/05/22 05:54:05;;;;;;;6.85;3.03;;;22.50;53.50;;;;;;4858429;29;20029;-71
2022/05/22 05:57:04;;;;;;;7.03;2.50;;;22.50;53.50;;;;;;4857584;29;20044;-70
2022/05/22 05:59:40;;;;;;;8.60;3.30;;;22.50;53.40;;;;;;4839487;29;20041;-70
2022/05/22 06:02:14;;;;;;;10.45;3.03;;;22.50;53.60;;;;;;4873069;29;20503;-70
2022/05/22 06:04:41;;;;;;;7.32;2.95;;;22.50;53.50;;;;;;4842564;29;20464;-70
2022/05/22 06:07:08;;;;;;;9.23;3.00;;;22.50;53.70;;;;;;4857603;29;20089;-71
2022/05/22 06:09:35;;;;;;;5.75;2.88;;;22.50;53.70;;;;;;4842853;29;20060;-70
2022/05/22 06:12:18;;;;;;;9.13;3.20;;;22.50;53.60;;;;;;4857347;29;20030;-70
2022/05/22 06:14:57;;;;;;;9.50;3.30;;;22.50;53.90;;;;;;4858174;29;20117;-71
2022/05/22 06:17:32;;;;;;;7.78;3.28;;;22.50;53.70;;;;;;4856832;29;20037;-71
2022/05/22 06:19:59;;;;;;;7.88;3.22;;;22.50;53.80;;;;;;4857051;29;20121;-71
2022/05/22 06:22:29;;;;;;;;;;;22.40;53.80;;;;;;4872918;29;20061;-70
2022/05/22 06:24:57;;;;;;;7.65;3.05;;;22.50;53.80;;;;;;4872004;29;20646;-71
2022/05/22 06:27:47;;;;;;;8.65;3.00;;;22.50;53.90;;;;;;4857448;29;20546;-70
2022/05/22 06:30:35;;;;;;;8.25;2.92;;;22.50;53.90;;;;;;4856291;29;20403;-71
2022/05/22 06:33:17;;;;;;;5.93;2.80;;;22.50;53.80;;;;;;4857684;29;20048;-71
2022/05/22 06:36:10;;;;;;;7.50;3.03;;;22.50;53.80;;;;;;4858196;29;20061;-70
2022/05/22 06:41:51;;;;;;;9.77;2.53;;;22.50;54.00;;;;;;4857648;29;20105;-74
2022/05/22 06:44:37;;;;;;;17.17;3.00;;;22.40;52.80;;;;;;4858087;29;20058;-74
2022/05/22 06:47:34;;;;;;;12.57;2.58;;;22.30;51.70;;;;;;4844268;29;20041;-74
2022/05/22 06:50:21;;;;;;;11.82;2.92;;;22.20;51.30;;;;;;4857000;29;20517;-74
2022/05/22 06:53:16;;;;;;;14.20;3.30;;;22.10;50.70;;;;;;4856235;29;20052;-73
2022/05/22 06:55:48;;;;;;;12.90;3.03;;;22.10;51.40;;;;;;4857806;29;20059;-73
2022/05/22 06:58:37;;;;;;;10.77;2.83;;;22.00;50.90;;;;;;4857157;29;20486;-73
2022/05/22 07:01:31;;;;;;;12.05;2.58;;;22.10;51.10;;;;;;4857684;29;20035;-72
2022/05/22 07:04:29;;;;;;;11.80;3.30;;;22.00;50.90;;;;;;4845667;29;20045;-73
2022/05/22 07:06:55;;;;;;;11.98;3.22;;;22.00;51.00;;;;;;4857706;29;20040;-74
2022/05/22 07:09:37;;;;;;;15.00;3.05;;;22.00;50.70;;;;;;4856406;29;20626;-73
2022/05/22 07:12:13;;;;;;;10.13;3.00;;;22.00;50.50;;;;;;4857245;29;20029;-74
2022/05/22 07:14:58;;;;;;;9.40;2.30;;;21.90;50.80;;;;;;4855942;29;20387;-74
2022/05/22 07:17:42;;;;;;;9.88;2.35;;;21.90;50.50;;;;;;4853585;29;20525;-74
2022/05/22 07:20:27;;;;;;;6.95;2.22;;;21.90;50.30;;;;;;4857428;29;20517;-74
2022/05/22 07:23:21;;;;;;;10.95;2.25;;;21.80;50.10;;;;;;4857210;29;20052;-73
2022/05/22 07:26:09;;;;;;;8.48;1.98;;;21.80;50.20;;;;;;4851039;29;20041;-73
2022/05/22 07:28:58;;;;;;;11.70;2.03;;;21.80;49.70;;;;;;4856317;29;20041;-74
2022/05/22 07:31:47;;;;;;;7.50;1.97;;;21.80;49.50;;;;;;4857306;29;20030;-71
2022/05/22 07:34:31;;;;;;;10.70;2.35;;;21.80;49.80;;;;;;4856570;29;20041;-71
2022/05/22 07:37:20;;;;;;;7.07;1.75;;;21.80;49.80;;;;;;4870555;29;20110;-71
2022/05/22 07:40:07;;;;;;;10.52;2.28;;;21.90;49.90;;;;;;4855864;29;20514;-71
2022/05/22 07:43:05;;;;;;;6.63;1.77;;;22.00;49.90;;;;;;4855397;29;20193;-71
2022/05/22 07:45:37;;;;;;;9.52;2.08;;;22.10;49.90;;;;;;4856881;29;20030;-71
2022/05/22 07:48:23;;;;;;;10.65;2.33;;;22.20;50.20;;;;;;4856092;29;20447;-71
2022/05/22 07:50:57;;;;;;;6.68;1.40;;;22.20;50.30;;;;;;4855856;29;20108;-71
2022/05/22 07:53:46;;;;;;;9.20;1.90;;;22.20;50.30;;;;;;4856462;29;20045;-71
2022/05/22 07:56:35;;;;;;;7.57;2.10;;;22.20;50.30;;;;;;4847390;29;20053;-71
2022/05/22 07:59:20;;;;;;;9.32;2.05;;;22.30;50.40;;;;;;4852973;29;20305;-71
2022/05/22 08:01:59;;;;;;;6.43;1.60;;;22.30;50.50;;;;;;4871310;29;20045;-71
2022/05/22 08:04:33;;;;;;;11.65;1.92;;;22.30;50.60;;;;;;4855474;29;20036;-71
2022/05/22 08:07:26;;;;;;;9.43;2.13;;;22.30;50.60;;;;;;4855976;29;20117;-71
2022/05/22 08:09:59;;;;;;;7.13;1.55;;;22.30;50.80;;;;;;4855695;29;20036;-71
2022/05/22 08:12:26;;;;;;;4.95;1.60;;;22.30;50.80;;;;;;4856911;29;20402;-72
2022/05/22 08:15:06;;;;;;;4.55;1.48;;;22.30;50.80;;;;;;4839744;29;20082;-70
2022/05/22 08:17:36;;;;;;;12.98;2.10;;;22.30;50.90;;;;;;4856260;29;20391;-69
2022/05/22 08:20:12;;;;;;;21.67;2.08;;;22.30;50.60;;;;;;4855738;29;20041;-70
2022/05/22 08:23:00;;;;;;;9.25;1.80;;;22.20;50.60;;;;;;4856630;29;20398;-72
2022/05/22 08:25:42;;;;;;;14.40;2.70;;;22.20;49.80;;;;;;4855633;29;20025;-72
2022/05/22 08:28:10;;;;;;;16.67;3.47;;;22.20;49.80;;;;;;4870188;29;20112;-73
2022/05/22 08:30:36;;;;;;;9.10;3.53;;;22.20;49.30;;;;;;4856884;29;20497;-72
2022/05/22 08:33:03;;;;;;;8.95;2.45;;;22.10;49.60;;;;;;4856654;29;20120;-72
2022/05/22 08:35:32;;;;;;;10.43;2.45;;;22.10;49.10;;;;;;4855381;29;20112;-73
2022/05/22 08:37:59;;;;;;;;;;;22.00;48.80;;;;;;4855223;29;20097;-73
2022/05/22 08:40:28;;;;;;;6.47;1.52;;;22.00;48.50;;;;;;4855632;29;20277;-73
2022/05/22 08:43:13;;;;;;;5.00;1.60;;;21.90;48.30;;;;;;4855810;29;20064;-73
2022/05/22 08:45:52;;;;;;;5.95;1.60;;;21.90;48.40;;;;;;4856199;29;20156;-73
2022/05/22 08:48:33;;;;;;;6.07;1.63;;;21.90;48.20;;;;;;4858167;29;20030;-72
2022/05/22 08:51:00;;;;;;;6.45;1.70;;;21.90;48.40;;;;;;4859928;29;20491;-72
2022/05/22 08:53:35;;;;;;;3.28;1.55;;;21.90;48.50;;;;;;4859646;29;20057;-72
2022/05/22 08:59:20;;;;;;;7.53;1.90;;;22.10;48.80;;;;;;4860347;29;20033;-71
2022/05/22 09:01:59;;;;;;;7.72;1.63;;;22.10;49.00;;;;;;4843485;29;20041;-72
2022/05/22 09:04:47;;;;;;;5.53;1.40;;;22.20;49.20;;;;;;4860372;29;20654;-72
2022/05/22 09:07:24;;;;;;;4.43;1.50;;;22.20;49.10;;;;;;4861484;29;20026;-72
2022/05/22 09:10:18;;;;;;;15.02;2.38;;;22.20;49.20;;;;;;4844878;29;20040;-71
2022/05/22 09:13:04;;;;;;;11.93;3.40;;;22.20;49.30;;;;;;4875810;29;20082;-72
2022/05/22 09:15:39;;;;;;;9.25;3.05;;;22.30;49.70;;;;;;4860090;29;20033;-73
2022/05/22 09:18:32;;;;;;;8.27;2.33;;;22.30;49.60;;;;;;4861126;29;20041;-74
2022/05/22 09:21:06;;;;;;;8.57;2.72;;;22.30;49.50;;;;;;4861385;29;20029;-73
2022/05/22 09:23:55;;;;;;;10.32;2.63;;;22.20;48.80;;;;;;4861131;29;20045;-72
2022/05/22 09:27:02;;;;;;;12.70;3.17;;;22.10;48.70;;;;;;4859730;29;20037;-72
2022/05/22 09:30:07;;;;;;;11.02;2.95;;;22.10;49.10;;;;;;4850200;29;20047;-72
2022/05/22 09:32:56;;;;;;;11.23;2.78;;;22.20;49.50;;;;;;4859671;29;20035;-71
2022/05/22 09:35:50;;;;;;;15.13;2.80;;;22.20;49.60;;;;;;4860887;29;20029;-72
2022/05/22 09:38:37;;;;;;;10.13;2.92;;;22.20;49.90;;;;;;4860575;29;20506;-72
2022/05/22 09:41:09;;;;;;;10.30;3.28;;;22.20;50.00;;;;;;4860939;29;20390;-71
2022/05/22 09:44:12;;;;;;;17.15;3.08;;;22.30;50.30;;;;;;4859907;29;20525;-71
2022/05/22 09:46:49;;;;;;;12.85;2.65;;;22.30;50.80;;;;;;4859658;29;20134;-71
2022/05/22 09:49:37;;;;;;;12.07;2.83;;;22.30;50.70;;;;;;4860515;29;20033;-71
2022/05/22 09:52:29;;;;;;;19.77;3.10;;;22.40;50.70;;;;;;4859432;29;20073;-72
2022/05/22 09:55:28;;;;;;;7.22;2.05;;;22.40;50.70;;;;;;4859519;29;20037;-77
2022/05/22 09:58:31;;;;;;;12.10;2.50;;;22.40;50.60;;;;;;4859066;29;20128;-72
2022/05/22 10:01:18;;;;;;;20.50;2.63;;;22.40;50.60;;;;;;4860009;29;20041;-72
2022/05/22 10:04:11;;;;;;;11.00;2.58;;;22.40;50.80;;;;;;4860539;29;20037;-72
2022/05/22 10:06:48;;;;;;;16.48;2.70;;;22.40;50.60;;;;;;4860464;29;20025;-72
2022/05/22 10:09:36;;;;;;;14.95;2.65;;;22.30;50.30;;;;;;4860319;29;20084;-72
2022/05/22 10:12:40;;;;;;;21.63;2.70;;;22.30;50.20;;;;;;4856110;29;20461;-72
2022/05/22 10:15:21;;;;;;;10.90;2.50;;;22.40;50.90;;;;;;4858811;29;20078;-72
2022/05/22 10:18:01;;;;;;;8.98;2.38;;;22.40;50.80;;;;;;4859884;29;20513;-72
2022/05/22 10:20:42;;;;;;;16.42;2.55;;;22.40;50.20;;;;;;4860223;29;20040;-75
2022/05/22 10:23:33;;;;;;;20.90;2.72;;;22.40;51.30;;;;;;4860229;29;20037;-75
2022/05/22 10:26:08;;;;;;;10.38;2.30;;;22.40;51.20;;;;;;4867675;29;20070;-74
2022/05/22 10:28:40;;;;;;;13.52;2.20;;;22.40;50.30;;;;;;4858975;29;20463;-73
2022/05/22 10:31:18;;;;;;;14.73;2.35;;;22.30;50.50;;;;;;4859823;29;20432;-73
2022/05/22 10:34:00;;;;;;;11.38;2.28;;;22.30;50.00;;;;;;4858718;29;20029;-73
2022/05/22 10:36:40;;;;;;;11.73;2.42;;;22.30;50.30;;;;;;4843335;29;20072;-73
2022/05/22 10:39:09;;;;;;;11.73;2.20;;;22.30;50.40;;;;;;4859785;29;20081;-73
2022/05/22 10:44:52;;;;;;;10.73;2.22;;;22.30;50.30;;;;;;4859139;29;20086;-74
2022/05/22 10:47:30;;;;;;;11.93;2.50;;;22.30;50.40;;;;;;4858579;29;20033;-73
2022/05/22 10:49:59;;;;;;;13.15;2.72;;;22.40;51.20;;;;;;4843323;29;20142;-74
2022/05/22 10:52:33;;;;;;;14.73;2.65;;;22.40;50.90;;;;;;4843455;29;20447;-73
2022/05/22 10:55:01;;;;;;;10.15;2.53;;;22.30;50.90;;;;;;4858396;29;20052;-73
2022/05/22 10:57:30;;;;;;;14.63;2.70;;;22.30;51.10;;;;;;4859497;29;20534;-72
2022/05/22 10:59:56;;;;;;;11.80;2.05;;;22.30;50.90;;;;;;4858502;29;20495;-76
2022/05/22 11:02:24;;;;;;;9.98;2.20;;;22.30;51.10;;;;;;4843099;29;20037;-75
2022/05/22 11:04:52;;;;;;;8.32;2.22;;;22.30;50.80;;;;;;4859277;29;20101;-75
2022/05/22 11:07:34;;;;;;;14.73;2.13;;;22.30;50.60;;;;;;4859390;29;20029;-80
2022/05/22 11:10:26;;;;;;;7.82;2.10;;;22.30;50.50;;;;;;4858763;29;20034;-81
2022/05/22 11:13:08;;;;;;;7.30;2.22;;;22.20;50.20;;;;;;4858628;29;20089;-82
2022/05/22 11:15:37;;;;;;;9.52;2.10;;;22.20;50.10;;;;;;4882441;23;20056;-75
2022/05/22 11:18:03;;;;;;;10.45;1.90;;;22.20;49.40;;;;;;4894205;29;20057;-76
2022/05/22 11:20:29;;;;;;;10.30;2.28;;;22.20;49.20;;;;;;4896156;29;20132;-75
2022/05/22 11:23:24;;;;;;;5.72;1.58;;;22.10;49.00;;;;;;4896666;29;20487;-75
2022/05/22 11:25:55;;;;;;;5.95;1.73;;;22.20;49.10;;;;;;4869613;29;20529;-76
2022/05/22 11:28:44;;;;;;;9.55;2.05;;;22.20;49.20;;;;;;4896244;29;20044;-76
2022/05/22 11:31:35;;;;;;;8.93;2.20;;;22.20;48.80;;;;;;4895395;29;20478;-75
2022/05/22 11:34:50;;;;;;;7.57;2.17;;;22.20;50.00;;;;;;4879720;29;20508;-74
2022/05/22 11:37:32;;;;;;;6.75;1.90;;;21.70;45.70;;;;;;4895033;29;20031;-75
2022/05/22 11:40:16;;;;;;;6.63;2.03;;;21.60;48.70;;;;;;4895379;29;20048;-75
2022/05/22 11:42:43;;;;;;;11.63;2.13;;;21.70;49.10;;;;;;4896144;29;20063;-75
2022/05/22 11:45:38;;;;;;;6.40;1.83;;;21.70;49.00;;;;;;4896122;29;20500;-75
2022/05/22 11:48:15;;;;;;;11.82;2.25;;;21.50;48.80;;;;;;4887238;29;20659;-75
2022/05/22 11:50:47;;;;;;;11.38;1.73;;;21.60;50.10;;;;;;4896167;29;20033;-75
2022/05/22 11:53:31;;;;;;;10.50;2.03;;;21.80;50.00;;;;;;4895077;29;20037;-75
2022/05/22 11:56:31;;;;;;;8.30;1.70;;;21.90;49.00;;;;;;4896055;29;20455;-75
2022/05/22 11:59:26;;;;;;;9.27;1.83;;;21.90;48.90;;;;;;4894813;29;20132;-75
2022/05/22 12:02:02;;;;;;;16.98;1.80;;;22.00;49.20;;;;;;4891888;29;20052;-75
2022/05/22 12:04:39;;;;;;;7.30;1.85;;;22.00;49.10;;;;;;4879593;29;20029;-75
2022/05/22 12:07:35;;;;;;;6.85;1.75;;;22.00;48.10;;;;;;4896283;29;20056;-75
2022/05/22 12:10:30;;;;;;;7.60;1.90;;;21.70;47.80;;;;;;4896041;29;20028;-74
2022/05/22 12:13:06;;;;;;;10.02;1.60;;;21.80;47.80;;;;;;4887507;29;20047;-74
2022/05/22 12:15:57;;;;;;;6.38;1.60;;;21.90;48.50;;;;;;4895857;29;20128;-75
2022/05/22 12:18:41;;;;;;;7.95;1.58;;;22.00;47.70;;;;;;4895751;29;20036;-75
2022/05/22 12:21:17;;;;;;;261.30;69.05;;;22.10;47.70;;;;;;4895915;29;20613;-76
2022/05/22 12:24:20;;;;;;;56.38;12.60;;;22.20;52.30;;;;;;4898527;29;20108;-75
2022/05/22 12:26:48;;;;;;;133.75;30.58;;;22.20;48.70;;;;;;4897950;29;20035;-75
2022/05/22 12:29:25;;;;;;;373.65;125.35;;;22.20;49.00;;;;;;4899528;29;20044;-74
2022/05/22 12:31:59;;;;;;;340.10;154.15;;;22.20;51.40;;;;;;4899758;29;20028;-74
2022/05/22 12:34:47;;;;;;;381.67;209.15;;;22.10;51.40;;;;;;4899614;29;20096;-74
2022/05/22 12:37:39;;;;;;;322.58;177.73;;;22.10;49.50;;;;;;4898057;29;20481;-74
2022/05/22 12:40:19;;;;;;;325.55;195.02;;;22.10;51.10;;;;;;4897518;29;20454;-74
2022/05/22 12:42:55;;;;;;;214.88;128.63;;;22.10;51.20;;;;;;4899484;29;20135;-74
2022/05/22 12:45:23;;;;;;;126.95;72.32;;;22.10;49.70;;;;;;4897939;29;20039;-74
2022/05/22 12:47:51;;;;;;;127.18;68.57;;;22.10;50.00;;;;;;4898751;29;20441;-73
2022/05/22 12:50:57;;;;;;;91.47;51.38;;;22.00;49.90;;;;;;4899078;29;20040;-75
2022/05/22 12:53:26;;;;;;;75.88;41.05;;;22.00;49.00;;;;;;4881105;29;20064;-75
2022/05/22 12:55:53;;;;;;;101.15;55.67;;;22.00;47.80;;;;;;4897899;29;20450;-75
2022/05/22 12:58:35;;;;;;;70.78;42.25;;;22.00;47.90;;;;;;4899111;29;20032;-75
2022/05/22 13:01:00;;;;;;;47.17;27.40;;;22.10;47.60;;;;;;4897713;29;20031;-74
2022/05/22 13:03:40;;;;;;;57.38;31.73;;;22.10;47.00;;;;;;4898504;29;20393;-74
2022/05/22 13:06:21;;;;;;;60.65;32.20;;;22.10;48.10;;;;;;4898917;29;20417;-75
2022/05/22 13:09:02;;;;;;;66.95;36.35;;;22.10;47.40;;;;;;4881812;29;20390;-74
2022/05/22 13:11:42;;;;;;;35.45;19.25;;;22.10;47.80;;;;;;4898545;29;20033;-75
2022/05/22 13:14:26;;;;;;;40.88;21.35;;;22.10;47.80;;;;;;4881960;29;20043;-75
2022/05/22 13:16:52;;;;;;;35.78;21.13;;;22.10;47.00;;;;;;4898367;29;20037;-75
2022/05/22 13:19:24;;;;;;;48.47;26.05;;;22.10;47.20;;;;;;4898583;29;20033;-79
2022/05/22 13:21:52;;;;;;;26.52;15.43;;;22.10;47.60;;;;;;4898751;29;20119;-80
2022/05/22 13:24:17;;;;;;;33.15;16.17;;;22.10;47.50;;;;;;4898769;29;20037;-80
2022/05/22 13:27:05;;;;;;;32.85;15.20;;;22.10;47.40;;;;;;4898720;29;20020;-81
2022/05/22 13:29:52;;;;;;;23.73;9.98;;;22.10;47.80;;;;;;4893552;29;20112;-78
2022/05/22 13:32:24;;;;;;;23.20;9.57;;;22.10;47.20;;;;;;4896698;29;20498;-76
2022/05/22 13:34:53;;;;;;;27.38;13.52;;;22.10;46.60;;;;;;4865676;29;20036;-78
2022/05/22 13:37:29;;;;;;;20.58;11.43;;;22.20;46.90;;;;;;4897984;29;20091;-78
2022/05/22 13:40:06;;;;;;;25.02;12.48;;;22.20;47.00;;;;;;4897260;29;20111;-78
2022/05/22 13:43:14;;;;;;;23.90;11.18;;;22.20;47.40;;;;;;4898230;29;20063;-78
2022/05/22 13:46:14;;;;;;;21.98;10.52;;;22.20;47.70;;;;;;4895628;29;20024;-78